sensor_id;sensor_type;location;lat;lon;timestamp;P1;durP1;ratioP1;P2;durP2;ratioP2
20699;SDS011;10511;51.232;9.420;2022-08-03T00:01:02;0.60;;;0.60;;
20699;SDS011;10511;51.232;9.420;2022-08-03T00:03:29;0.60;;;0.60;;
20699;SDS011;10511;51.232;9.420;2022-08-03T00:05:56;0.60;;;0.60;;
20699;SDS011;10511;51.232;9.420;2022-08-03T00:08:23;0.63;;;0.63;;
20699;SDS011;10511;51.232;9.420;2022-08-03T00:10:52;0.60;;;0.60;;
20699;SDS011;10511;51.232;9.420;2022-08-03T00:13:19;0.70;;;0.70;;
20699;SDS011;10511;51.232;9.420;2022-08-03T00:15:45;0.60;;;0.60;;
20699;SDS011;10511;51.232;9.420;2022-08-03T00:18:12;0.60;;;0.60;;
20699;SDS011;10511;51.232;9.420;2022-08-03T00:20:39;0.60;;;0.60;;
20699;SDS011;10511;51.232;9.420;2022-08-03T00:23:07;0.60;;;0.60;;
20699;SDS011;10511;51.232;9.420;2022-08-03T00:25:33;0.60;;;0.60;;
20699;SDS011;10511;51.232;9.420;2022-08-03T00:28:02;0.63;;;0.63;;
20699;SDS011;10511;51.232;9.420;2022-08-03T00:30:30;0.60;;;0.60;;
20699;SDS011;10511;51.232;9.420;2022-08-03T00:32:57;0.60;;;0.60;;
20699;SDS011;10511;51.232;9.420;2022-08-03T00:35:25;0.60;;;0.60;;
20699;SDS011;10511;51.232;9.420;2022-08-03T00:37:52;0.60;;;0.60;;
20699;SDS011;10511;51.232;9.420;2022-08-03T00:40:20;0.60;;;0.60;;
20699;SDS011;10511;51.232;9.420;2022-08-03T00:42:48;0.60;;;0.60;;
20699;SDS011;10511;51.232;9.420;2022-08-03T00:45:19;0.60;;;0.60;;
20699;SDS011;10511;51.232;9.420;2022-08-03T00:47:47;0.60;;;0.60;;
20699;SDS011;10511;51.232;9.420;2022-08-03T00:50:14;0.60;;;0.60;;
20699;SDS011;10511;51.232;9.420;2022-08-03T00:52:42;0.70;;;0.70;;
20699;SDS011;10511;51.232;9.420;2022-08-03T00:55:10;0.60;;;0.60;;
20699;SDS011;10511;51.232;9.420;2022-08-03T00:57:37;0.70;;;0.70;;
20699;SDS011;10511;51.232;9.420;2022-08-03T01:00:05;0.70;;;0.70;;
20699;SDS011;10511;51.232;9.420;2022-08-03T01:02:35;0.60;;;0.60;;
20699;SDS011;10511;51.232;9.420;2022-08-03T01:05:03;0.60;;;0.60;;
20699;SDS011;10511;51.232;9.420;2022-08-03T01:07:34;0.70;;;0.70;;
20699;SDS011;10511;51.232;9.420;2022-08-03T01:10:09;0.70;;;0.70;;
20699;SDS011;10511;51.232;9.420;2022-08-03T01:12:42;0.70;;;0.70;;
20699;SDS011;10511;51.232;9.420;2022-08-03T01:15:18;0.60;;;0.60;;
20699;SDS011;10511;51.232;9.420;2022-08-03T01:17:53;0.73;;;0.73;;
20699;SDS011;10511;51.232;9.420;2022-08-03T01:20:25;0.70;;;0.70;;
20699;SDS011;10511;51.232;9.420;2022-08-03T01:23:02;0.70;;;0.70;;
20699;SDS011;10511;51.232;9.420;2022-08-03T01:25:45;0.70;;;0.70;;
20699;SDS011;10511;51.232;9.420;2022-08-03T01:28:28;0.77;;;0.77;;
20699;SDS011;10511;51.232;9.420;2022-08-03T01:31:06;0.70;;;0.70;;
20699;SDS011;10511;51.232;9.420;2022-08-03T01:33:36;0.70;;;0.70;;
20699;SDS011;10511;51.232;9.420;2022-08-03T01:36:06;0.77;;;0.77;;
20699;SDS011;10511;51.232;9.420;2022-08-03T01:38:37;0.70;;;0.70;;
20699;SDS011;10511;51.232;9.420;2022-08-03T01:41:11;0.70;;;0.70;;
20699;SDS011;10511;51.232;9.420;2022-08-03T01:43:41;0.70;;;0.70;;
20699;SDS011;10511;51.232;9.420;2022-08-03T01:46:14;0.70;;;0.70;;
20699;SDS011;10511;51.232;9.420;2022-08-03T01:48:43;0.67;;;0.67;;
20699;SDS011;10511;51.232;9.420;2022-08-03T01:51:14;0.60;;;0.60;;
20699;SDS011;10511;51.232;9.420;2022-08-03T01:53:42;0.60;;;0.60;;
20699;SDS011;10511;51.232;9.420;2022-08-03T01:56:10;0.60;;;0.60;;
20699;SDS011;10511;51.232;9.420;2022-08-03T01:58:39;0.70;;;0.70;;
20699;SDS011;10511;51.232;9.420;2022-08-03T02:01:07;0.60;;;0.60;;
20699;SDS011;10511;51.232;9.420;2022-08-03T02:03:37;0.70;;;0.70;;
20699;SDS011;10511;51.232;9.420;2022-08-03T02:06:06;0.70;;;0.70;;
20699;SDS011;10511;51.232;9.420;2022-08-03T02:08:36;0.60;;;0.60;;
20699;SDS011;10511;51.232;9.420;2022-08-03T02:11:04;0.70;;;0.70;;
20699;SDS011;10511;51.232;9.420;2022-08-03T02:13:32;0.60;;;0.60;;
20699;SDS011;10511;51.232;9.420;2022-08-03T02:15:59;0.70;;;0.70;;
20699;SDS011;10511;51.232;9.420;2022-08-03T02:18:27;0.60;;;0.60;;
20699;SDS011;10511;51.232;9.420;2022-08-03T02:20:58;0.70;;;0.70;;
20699;SDS011;10511;51.232;9.420;2022-08-03T02:23:28;0.70;;;0.70;;
20699;SDS011;10511;51.232;9.420;2022-08-03T02:25:56;0.70;;;0.70;;
20699;SDS011;10511;51.232;9.420;2022-08-03T02:28:28;0.70;;;0.70;;
20699;SDS011;10511;51.232;9.420;2022-08-03T02:30:58;0.70;;;0.70;;
20699;SDS011;10511;51.232;9.420;2022-08-03T02:33:35;0.70;;;0.70;;
20699;SDS011;10511;51.232;9.420;2022-08-03T02:36:07;0.63;;;0.63;;
20699;SDS011;10511;51.232;9.420;2022-08-03T02:38:38;0.70;;;0.70;;
20699;SDS011;10511;51.232;9.420;2022-08-03T02:41:12;0.60;;;0.60;;
20699;SDS011;10511;51.232;9.420;2022-08-03T02:43:44;0.70;;;0.70;;
20699;SDS011;10511;51.232;9.420;2022-08-03T02:46:13;0.70;;;0.70;;
20699;SDS011;10511;51.232;9.420;2022-08-03T02:48:44;0.70;;;0.70;;
20699;SDS011;10511;51.232;9.420;2022-08-03T02:51:14;0.60;;;0.60;;
20699;SDS011;10511;51.232;9.420;2022-08-03T02:53:43;0.63;;;0.63;;
20699;SDS011;10511;51.232;9.420;2022-08-03T02:56:11;0.70;;;0.70;;
20699;SDS011;10511;51.232;9.420;2022-08-03T02:58:39;0.60;;;0.60;;
20699;SDS011;10511;51.232;9.420;2022-08-03T03:01:09;0.67;;;0.67;;
20699;SDS011;10511;51.232;9.420;2022-08-03T03:03:36;0.70;;;0.70;;
20699;SDS011;10511;51.232;9.420;2022-08-03T03:06:05;0.60;;;0.60;;
20699;SDS011;10511;51.232;9.420;2022-08-03T03:08:34;0.70;;;0.70;;
20699;SDS011;10511;51.232;9.420;2022-08-03T03:11:02;0.60;;;0.60;;
20699;SDS011;10511;51.232;9.420;2022-08-03T03:13:30;0.60;;;0.60;;
20699;SDS011;10511;51.232;9.420;2022-08-03T03:16:00;0.70;;;0.70;;
20699;SDS011;10511;51.232;9.420;2022-08-03T03:18:30;0.70;;;0.70;;
20699;SDS011;10511;51.232;9.420;2022-08-03T03:20:58;0.70;;;0.70;;
20699;SDS011;10511;51.232;9.420;2022-08-03T03:23:26;0.70;;;0.70;;
20699;SDS011;10511;51.232;9.420;2022-08-03T03:25:57;0.70;;;0.70;;
20699;SDS011;10511;51.232;9.420;2022-08-03T03:28:26;0.70;;;0.70;;
20699;SDS011;10511;51.232;9.420;2022-08-03T03:30:54;0.70;;;0.70;;
20699;SDS011;10511;51.232;9.420;2022-08-03T03:33:21;0.60;;;0.60;;
20699;SDS011;10511;51.232;9.420;2022-08-03T03:35:49;0.70;;;0.70;;
20699;SDS011;10511;51.232;9.420;2022-08-03T03:38:17;0.70;;;0.70;;
20699;SDS011;10511;51.232;9.420;2022-08-03T03:40:44;0.70;;;0.70;;
20699;SDS011;10511;51.232;9.420;2022-08-03T03:43:12;0.70;;;0.70;;
20699;SDS011;10511;51.232;9.420;2022-08-03T03:45:40;0.70;;;0.70;;
20699;SDS011;10511;51.232;9.420;2022-08-03T03:48:07;0.70;;;0.70;;
20699;SDS011;10511;51.232;9.420;2022-08-03T03:50:35;0.70;;;0.70;;
20699;SDS011;10511;51.232;9.420;2022-08-03T03:53:07;0.70;;;0.70;;
20699;SDS011;10511;51.232;9.420;2022-08-03T03:55:35;0.70;;;0.70;;
20699;SDS011;10511;51.232;9.420;2022-08-03T03:58:02;0.70;;;0.70;;
20699;SDS011;10511;51.232;9.420;2022-08-03T04:00:30;0.60;;;0.60;;
20699;SDS011;10511;51.232;9.420;2022-08-03T04:02:57;0.70;;;0.70;;
20699;SDS011;10511;51.232;9.420;2022-08-03T04:05:25;0.70;;;0.70;;
20699;SDS011;10511;51.232;9.420;2022-08-03T04:08:10;0.70;;;0.70;;
20699;SDS011;10511;51.232;9.420;2022-08-03T04:11:01;0.70;;;0.70;;
20699;SDS011;10511;51.232;9.420;2022-08-03T04:13:33;0.70;;;0.70;;
20699;SDS011;10511;51.232;9.420;2022-08-03T04:16:04;0.70;;;0.70;;
20699;SDS011;10511;51.232;9.420;2022-08-03T04:18:34;0.70;;;0.70;;
20699;SDS011;10511;51.232;9.420;2022-08-03T04:21:04;0.70;;;0.70;;
20699;SDS011;10511;51.232;9.420;2022-08-03T04:23:34;0.70;;;0.70;;
20699;SDS011;10511;51.232;9.420;2022-08-03T04:26:05;0.70;;;0.70;;
20699;SDS011;10511;51.232;9.420;2022-08-03T04:28:36;0.90;;;0.90;;
20699;SDS011;10511;51.232;9.420;2022-08-03T04:31:06;0.70;;;0.70;;
20699;SDS011;10511;51.232;9.420;2022-08-03T04:33:34;0.70;;;0.70;;
20699;SDS011;10511;51.232;9.420;2022-08-03T04:36:04;0.70;;;0.70;;
20699;SDS011;10511;51.232;9.420;2022-08-03T04:38:34;0.70;;;0.70;;
20699;SDS011;10511;51.232;9.420;2022-08-03T04:41:03;0.70;;;0.70;;
20699;SDS011;10511;51.232;9.420;2022-08-03T04:43:30;0.70;;;0.70;;
20699;SDS011;10511;51.232;9.420;2022-08-03T04:45:59;0.60;;;0.60;;
20699;SDS011;10511;51.232;9.420;2022-08-03T04:48:28;0.80;;;0.80;;
20699;SDS011;10511;51.232;9.420;2022-08-03T04:50:55;0.70;;;0.70;;
20699;SDS011;10511;51.232;9.420;2022-08-03T04:53:22;0.70;;;0.70;;
20699;SDS011;10511;51.232;9.420;2022-08-03T04:55:49;0.70;;;0.70;;
20699;SDS011;10511;51.232;9.420;2022-08-03T04:58:16;0.70;;;0.70;;
20699;SDS011;10511;51.232;9.420;2022-08-03T05:04:11;0.70;;;0.70;;
20699;SDS011;10511;51.232;9.420;2022-08-03T05:06:38;0.70;;;0.70;;
20699;SDS011;10511;51.232;9.420;2022-08-03T05:09:05;0.60;;;0.60;;
20699;SDS011;10511;51.232;9.420;2022-08-03T05:11:32;0.63;;;0.63;;
20699;SDS011;10511;51.232;9.420;2022-08-03T05:13:59;0.60;;;0.60;;
20699;SDS011;10511;51.232;9.420;2022-08-03T05:16:26;0.60;;;0.60;;
20699;SDS011;10511;51.232;9.420;2022-08-03T05:18:53;0.70;;;0.70;;
20699;SDS011;10511;51.232;9.420;2022-08-03T05:21:21;0.60;;;0.60;;
20699;SDS011;10511;51.232;9.420;2022-08-03T05:23:48;0.70;;;0.70;;
20699;SDS011;10511;51.232;9.420;2022-08-03T05:26:15;0.70;;;0.70;;
20699;SDS011;10511;51.232;9.420;2022-08-03T05:28:42;0.70;;;0.70;;
20699;SDS011;10511;51.232;9.420;2022-08-03T05:31:09;0.70;;;0.70;;
20699;SDS011;10511;51.232;9.420;2022-08-03T05:33:37;0.70;;;0.70;;
20699;SDS011;10511;51.232;9.420;2022-08-03T05:36:05;0.67;;;0.67;;
20699;SDS011;10511;51.232;9.420;2022-08-03T05:38:33;0.70;;;0.70;;
20699;SDS011;10511;51.232;9.420;2022-08-03T05:41:00;0.70;;;0.70;;
20699;SDS011;10511;51.232;9.420;2022-08-03T05:43:28;0.60;;;0.60;;
20699;SDS011;10511;51.232;9.420;2022-08-03T05:45:56;0.70;;;0.70;;
20699;SDS011;10511;51.232;9.420;2022-08-03T05:48:23;0.70;;;0.70;;
20699;SDS011;10511;51.232;9.420;2022-08-03T05:50:50;0.60;;;0.60;;
20699;SDS011;10511;51.232;9.420;2022-08-03T05:53:17;0.70;;;0.70;;
20699;SDS011;10511;51.232;9.420;2022-08-03T05:55:45;0.70;;;0.70;;
20699;SDS011;10511;51.232;9.420;2022-08-03T05:58:12;0.70;;;0.70;;
20699;SDS011;10511;51.232;9.420;2022-08-03T06:00:39;0.67;;;0.67;;
20699;SDS011;10511;51.232;9.420;2022-08-03T06:03:06;0.70;;;0.70;;
20699;SDS011;10511;51.232;9.420;2022-08-03T06:05:33;0.70;;;0.70;;
20699;SDS011;10511;51.232;9.420;2022-08-03T06:08:00;0.70;;;0.70;;
20699;SDS011;10511;51.232;9.420;2022-08-03T06:10:27;0.70;;;0.70;;
20699;SDS011;10511;51.232;9.420;2022-08-03T06:12:56;0.60;;;0.60;;
20699;SDS011;10511;51.232;9.420;2022-08-03T06:15:22;0.60;;;0.60;;
20699;SDS011;10511;51.232;9.420;2022-08-03T06:17:50;0.60;;;0.60;;
20699;SDS011;10511;51.232;9.420;2022-08-03T06:20:18;0.70;;;0.70;;
20699;SDS011;10511;51.232;9.420;2022-08-03T06:22:46;0.70;;;0.70;;
20699;SDS011;10511;51.232;9.420;2022-08-03T06:25:14;0.60;;;0.60;;
20699;SDS011;10511;51.232;9.420;2022-08-03T06:27:41;0.70;;;0.70;;
20699;SDS011;10511;51.232;9.420;2022-08-03T06:30:10;0.60;;;0.60;;
20699;SDS011;10511;51.232;9.420;2022-08-03T06:32:37;0.70;;;0.70;;
20699;SDS011;10511;51.232;9.420;2022-08-03T06:35:05;0.70;;;0.70;;
20699;SDS011;10511;51.232;9.420;2022-08-03T06:37:40;0.70;;;0.70;;
20699;SDS011;10511;51.232;9.420;2022-08-03T06:40:09;0.60;;;0.60;;
20699;SDS011;10511;51.232;9.420;2022-08-03T06:42:36;0.60;;;0.60;;
20699;SDS011;10511;51.232;9.420;2022-08-03T06:45:04;0.60;;;0.60;;
20699;SDS011;10511;51.232;9.420;2022-08-03T06:47:34;0.60;;;0.60;;
20699;SDS011;10511;51.232;9.420;2022-08-03T06:50:01;0.60;;;0.60;;
20699;SDS011;10511;51.232;9.420;2022-08-03T06:52:28;0.60;;;0.60;;
20699;SDS011;10511;51.232;9.420;2022-08-03T06:54:55;0.60;;;0.60;;
20699;SDS011;10511;51.232;9.420;2022-08-03T06:57:22;0.70;;;0.70;;
20699;SDS011;10511;51.232;9.420;2022-08-03T06:59:49;0.70;;;0.70;;
20699;SDS011;10511;51.232;9.420;2022-08-03T07:02:26;0.60;;;0.60;;
20699;SDS011;10511;51.232;9.420;2022-08-03T07:04:54;0.60;;;0.60;;
20699;SDS011;10511;51.232;9.420;2022-08-03T07:07:22;0.60;;;0.60;;
20699;SDS011;10511;51.232;9.420;2022-08-03T07:09:48;0.60;;;0.60;;
20699;SDS011;10511;51.232;9.420;2022-08-03T07:12:15;0.60;;;0.60;;
20699;SDS011;10511;51.232;9.420;2022-08-03T07:14:42;0.70;;;0.70;;
20699;SDS011;10511;51.232;9.420;2022-08-03T07:17:09;0.50;;;0.50;;
20699;SDS011;10511;51.232;9.420;2022-08-03T07:19:36;0.60;;;0.60;;
20699;SDS011;10511;51.232;9.420;2022-08-03T07:22:04;0.60;;;0.60;;
20699;SDS011;10511;51.232;9.420;2022-08-03T07:24:32;0.60;;;0.60;;
20699;SDS011;10511;51.232;9.420;2022-08-03T07:26:59;0.60;;;0.60;;
20699;SDS011;10511;51.232;9.420;2022-08-03T07:29:26;0.60;;;0.60;;
20699;SDS011;10511;51.232;9.420;2022-08-03T07:31:53;0.70;;;0.70;;
20699;SDS011;10511;51.232;9.420;2022-08-03T07:34:20;0.63;;;0.63;;
20699;SDS011;10511;51.232;9.420;2022-08-03T07:36:47;0.60;;;0.60;;
20699;SDS011;10511;51.232;9.420;2022-08-03T07:39:16;0.67;;;0.67;;
20699;SDS011;10511;51.232;9.420;2022-08-03T07:41:43;0.50;;;0.50;;
20699;SDS011;10511;51.232;9.420;2022-08-03T07:44:10;0.60;;;0.60;;
20699;SDS011;10511;51.232;9.420;2022-08-03T07:46:36;0.60;;;0.60;;
20699;SDS011;10511;51.232;9.420;2022-08-03T07:49:04;0.50;;;0.50;;
20699;SDS011;10511;51.232;9.420;2022-08-03T07:51:31;0.57;;;0.57;;
20699;SDS011;10511;51.232;9.420;2022-08-03T07:53:58;0.60;;;0.60;;
20699;SDS011;10511;51.232;9.420;2022-08-03T07:56:26;0.60;;;0.60;;
20699;SDS011;10511;51.232;9.420;2022-08-03T07:58:53;0.50;;;0.50;;
20699;SDS011;10511;51.232;9.420;2022-08-03T08:01:20;0.50;;;0.50;;
20699;SDS011;10511;51.232;9.420;2022-08-03T08:03:48;0.50;;;0.50;;
20699;SDS011;10511;51.232;9.420;2022-08-03T08:06:15;0.60;;;0.60;;
20699;SDS011;10511;51.232;9.420;2022-08-03T08:08:43;0.50;;;0.50;;
20699;SDS011;10511;51.232;9.420;2022-08-03T08:11:10;0.50;;;0.50;;
20699;SDS011;10511;51.232;9.420;2022-08-03T08:13:38;0.50;;;0.50;;
20699;SDS011;10511;51.232;9.420;2022-08-03T08:16:05;0.50;;;0.50;;
20699;SDS011;10511;51.232;9.420;2022-08-03T08:18:32;0.53;;;0.53;;
20699;SDS011;10511;51.232;9.420;2022-08-03T08:20:59;0.50;;;0.50;;
20699;SDS011;10511;51.232;9.420;2022-08-03T08:23:27;0.50;;;0.50;;
20699;SDS011;10511;51.232;9.420;2022-08-03T08:25:54;0.57;;;0.57;;
20699;SDS011;10511;51.232;9.420;2022-08-03T08:28:21;0.50;;;0.50;;
20699;SDS011;10511;51.232;9.420;2022-08-03T08:30:49;0.50;;;0.50;;
20699;SDS011;10511;51.232;9.420;2022-08-03T08:33:16;0.50;;;0.50;;
20699;SDS011;10511;51.232;9.420;2022-08-03T08:35:43;0.50;;;0.50;;
20699;SDS011;10511;51.232;9.420;2022-08-03T08:38:10;0.50;;;0.50;;
20699;SDS011;10511;51.232;9.420;2022-08-03T08:40:37;0.60;;;0.60;;
20699;SDS011;10511;51.232;9.420;2022-08-03T08:43:04;0.50;;;0.50;;
20699;SDS011;10511;51.232;9.420;2022-08-03T08:45:32;0.50;;;0.50;;
20699;SDS011;10511;51.232;9.420;2022-08-03T08:48:01;0.50;;;0.50;;
20699;SDS011;10511;51.232;9.420;2022-08-03T08:50:28;0.50;;;0.50;;
20699;SDS011;10511;51.232;9.420;2022-08-03T08:52:56;0.50;;;0.50;;
20699;SDS011;10511;51.232;9.420;2022-08-03T08:55:27;0.50;;;0.50;;
20699;SDS011;10511;51.232;9.420;2022-08-03T08:57:56;0.50;;;0.50;;
20699;SDS011;10511;51.232;9.420;2022-08-03T09:00:26;0.50;;;0.50;;
20699;SDS011;10511;51.232;9.420;2022-08-03T09:02:54;0.47;;;0.47;;
20699;SDS011;10511;51.232;9.420;2022-08-03T09:05:23;0.50;;;0.50;;
20699;SDS011;10511;51.232;9.420;2022-08-03T09:07:50;0.50;;;0.50;;
20699;SDS011;10511;51.232;9.420;2022-08-03T09:10:17;0.50;;;0.50;;
20699;SDS011;10511;51.232;9.420;2022-08-03T09:12:46;0.50;;;0.50;;
20699;SDS011;10511;51.232;9.420;2022-08-03T09:15:15;0.50;;;0.50;;
20699;SDS011;10511;51.232;9.420;2022-08-03T09:17:43;0.50;;;0.50;;
20699;SDS011;10511;51.232;9.420;2022-08-03T09:20:11;0.50;;;0.50;;
20699;SDS011;10511;51.232;9.420;2022-08-03T09:22:50;0.50;;;0.50;;
20699;SDS011;10511;51.232;9.420;2022-08-03T09:25:25;0.47;;;0.47;;
20699;SDS011;10511;51.232;9.420;2022-08-03T09:28:06;0.50;;;0.50;;
20699;SDS011;10511;51.232;9.420;2022-08-03T09:30:35;0.40;;;0.40;;
20699;SDS011;10511;51.232;9.420;2022-08-03T09:33:04;0.50;;;0.50;;
20699;SDS011;10511;51.232;9.420;2022-08-03T09:35:32;0.40;;;0.40;;
20699;SDS011;10511;51.232;9.420;2022-08-03T09:38:10;0.40;;;0.40;;
20699;SDS011;10511;51.232;9.420;2022-08-03T09:40:37;0.40;;;0.40;;
20699;SDS011;10511;51.232;9.420;2022-08-03T09:43:05;0.40;;;0.40;;
20699;SDS011;10511;51.232;9.420;2022-08-03T09:45:32;0.40;;;0.40;;
20699;SDS011;10511;51.232;9.420;2022-08-03T09:50:48;0.40;;;0.40;;
20699;SDS011;10511;51.232;9.420;2022-08-03T09:53:17;0.40;;;0.40;;
20699;SDS011;10511;51.232;9.420;2022-08-03T09:55:52;0.40;;;0.40;;
20699;SDS011;10511;51.232;9.420;2022-08-03T09:58:21;0.40;;;0.40;;
20699;SDS011;10511;51.232;9.420;2022-08-03T10:00:52;0.40;;;0.40;;
20699;SDS011;10511;51.232;9.420;2022-08-03T10:03:20;0.40;;;0.40;;
20699;SDS011;10511;51.232;9.420;2022-08-03T10:05:48;0.40;;;0.40;;
20699;SDS011;10511;51.232;9.420;2022-08-03T10:08:15;0.40;;;0.40;;
20699;SDS011;10511;51.232;9.420;2022-08-03T10:10:45;0.40;;;0.40;;
20699;SDS011;10511;51.232;9.420;2022-08-03T10:13:13;0.40;;;0.40;;
20699;SDS011;10511;51.232;9.420;2022-08-03T10:15:41;0.40;;;0.40;;
20699;SDS011;10511;51.232;9.420;2022-08-03T10:18:08;0.40;;;0.40;;
20699;SDS011;10511;51.232;9.420;2022-08-03T10:20:35;0.43;;;0.43;;
20699;SDS011;10511;51.232;9.420;2022-08-03T10:23:05;0.40;;;0.40;;
20699;SDS011;10511;51.232;9.420;2022-08-03T10:25:35;0.40;;;0.40;;
20699;SDS011;10511;51.232;9.420;2022-08-03T10:28:04;0.40;;;0.40;;
20699;SDS011;10511;51.232;9.420;2022-08-03T10:30:33;0.40;;;0.40;;
20699;SDS011;10511;51.232;9.420;2022-08-03T10:33:02;0.40;;;0.40;;
20699;SDS011;10511;51.232;9.420;2022-08-03T10:35:35;0.40;;;0.40;;
20699;SDS011;10511;51.232;9.420;2022-08-03T10:38:07;0.40;;;0.40;;
20699;SDS011;10511;51.232;9.420;2022-08-03T10:40:39;0.40;;;0.40;;
20699;SDS011;10511;51.232;9.420;2022-08-03T10:43:06;0.40;;;0.40;;
20699;SDS011;10511;51.232;9.420;2022-08-03T10:45:35;0.40;;;0.40;;
20699;SDS011;10511;51.232;9.420;2022-08-03T10:48:08;0.40;;;0.40;;
20699;SDS011;10511;51.232;9.420;2022-08-03T10:50:36;0.40;;;0.40;;
20699;SDS011;10511;51.232;9.420;2022-08-03T10:53:05;0.40;;;0.40;;
20699;SDS011;10511;51.232;9.420;2022-08-03T10:55:33;0.40;;;0.40;;
20699;SDS011;10511;51.232;9.420;2022-08-03T11:04:16;0.40;;;0.40;;
20699;SDS011;10511;51.232;9.420;2022-08-03T11:06:44;0.40;;;0.40;;
20699;SDS011;10511;51.232;9.420;2022-08-03T11:09:16;0.40;;;0.40;;
20699;SDS011;10511;51.232;9.420;2022-08-03T11:11:44;0.40;;;0.40;;
20699;SDS011;10511;51.232;9.420;2022-08-03T11:14:14;0.37;;;0.37;;
20699;SDS011;10511;51.232;9.420;2022-08-03T11:16:44;0.37;;;0.37;;
20699;SDS011;10511;51.232;9.420;2022-08-03T11:19:13;0.30;;;0.30;;
20699;SDS011;10511;51.232;9.420;2022-08-03T11:21:53;0.30;;;0.30;;
20699;SDS011;10511;51.232;9.420;2022-08-03T11:27:22;0.40;;;0.40;;
20699;SDS011;10511;51.232;9.420;2022-08-03T11:29:54;0.40;;;0.40;;
20699;SDS011;10511;51.232;9.420;2022-08-03T11:35:31;0.30;;;0.30;;
20699;SDS011;10511;51.232;9.420;2022-08-03T11:38:03;0.40;;;0.40;;
20699;SDS011;10511;51.232;9.420;2022-08-03T11:40:36;0.40;;;0.40;;
20699;SDS011;10511;51.232;9.420;2022-08-03T11:43:09;0.37;;;0.37;;
20699;SDS011;10511;51.232;9.420;2022-08-03T11:46:00;0.40;;;0.40;;
20699;SDS011;10511;51.232;9.420;2022-08-03T11:48:33;0.33;;;0.33;;
20699;SDS011;10511;51.232;9.420;2022-08-03T11:51:01;0.30;;;0.30;;
20699;SDS011;10511;51.232;9.420;2022-08-03T11:53:29;0.37;;;0.37;;
20699;SDS011;10511;51.232;9.420;2022-08-03T11:55:57;0.30;;;0.30;;
20699;SDS011;10511;51.232;9.420;2022-08-03T11:58:25;0.35;;;0.35;;
20699;SDS011;10511;51.232;9.420;2022-08-03T12:01:01;0.30;;;0.30;;
20699;SDS011;10511;51.232;9.420;2022-08-03T12:03:31;0.40;;;0.40;;
20699;SDS011;10511;51.232;9.420;2022-08-03T12:05:58;0.40;;;0.40;;
20699;SDS011;10511;51.232;9.420;2022-08-03T12:08:29;0.30;;;0.30;;
20699;SDS011;10511;51.232;9.420;2022-08-03T12:10:58;0.30;;;0.30;;
20699;SDS011;10511;51.232;9.420;2022-08-03T12:13:34;0.30;;;0.30;;
20699;SDS011;10511;51.232;9.420;2022-08-03T12:16:03;0.40;;;0.40;;
20699;SDS011;10511;51.232;9.420;2022-08-03T12:18:30;0.30;;;0.30;;
20699;SDS011;10511;51.232;9.420;2022-08-03T12:21:03;0.40;;;0.40;;
20699;SDS011;10511;51.232;9.420;2022-08-03T12:23:31;0.30;;;0.30;;
20699;SDS011;10511;51.232;9.420;2022-08-03T12:26:02;0.30;;;0.30;;
20699;SDS011;10511;51.232;9.420;2022-08-03T12:28:30;0.30;;;0.30;;
20699;SDS011;10511;51.232;9.420;2022-08-03T12:30:59;0.35;;;0.35;;
20699;SDS011;10511;51.232;9.420;2022-08-03T12:33:29;0.30;;;0.30;;
20699;SDS011;10511;51.232;9.420;2022-08-03T12:36:05;0.30;;;0.30;;
20699;SDS011;10511;51.232;9.420;2022-08-03T12:38:33;0.30;;;0.30;;
20699;SDS011;10511;51.232;9.420;2022-08-03T12:41:05;0.30;;;0.30;;
20699;SDS011;10511;51.232;9.420;2022-08-03T12:43:37;0.30;;;0.30;;
20699;SDS011;10511;51.232;9.420;2022-08-03T12:46:14;0.30;;;0.30;;
20699;SDS011;10511;51.232;9.420;2022-08-03T12:48:59;0.30;;;0.30;;
20699;SDS011;10511;51.232;9.420;2022-08-03T12:51:28;0.30;;;0.30;;
20699;SDS011;10511;51.232;9.420;2022-08-03T12:53:57;0.30;;;0.30;;
20699;SDS011;10511;51.232;9.420;2022-08-03T12:56:24;0.30;;;0.30;;
20699;SDS011;10511;51.232;9.420;2022-08-03T12:58:51;0.30;;;0.30;;
20699;SDS011;10511;51.232;9.420;2022-08-03T13:01:19;0.30;;;0.30;;
20699;SDS011;10511;51.232;9.420;2022-08-03T13:03:49;0.30;;;0.30;;
20699;SDS011;10511;51.232;9.420;2022-08-03T13:06:19;0.30;;;0.30;;
20699;SDS011;10511;51.232;9.420;2022-08-03T13:08:47;0.30;;;0.30;;
20699;SDS011;10511;51.232;9.420;2022-08-03T13:11:16;0.30;;;0.30;;
20699;SDS011;10511;51.232;9.420;2022-08-03T13:13:44;0.30;;;0.30;;
20699;SDS011;10511;51.232;9.420;2022-08-03T13:16:11;0.30;;;0.30;;
20699;SDS011;10511;51.232;9.420;2022-08-03T13:18:38;0.30;;;0.30;;
20699;SDS011;10511;51.232;9.420;2022-08-03T13:21:07;0.30;;;0.30;;
20699;SDS011;10511;51.232;9.420;2022-08-03T13:23:35;0.30;;;0.30;;
20699;SDS011;10511;51.232;9.420;2022-08-03T13:26:02;0.30;;;0.30;;
20699;SDS011;10511;51.232;9.420;2022-08-03T13:28:29;0.30;;;0.30;;
20699;SDS011;10511;51.232;9.420;2022-08-03T13:30:56;0.30;;;0.30;;
20699;SDS011;10511;51.232;9.420;2022-08-03T13:33:23;0.30;;;0.30;;
20699;SDS011;10511;51.232;9.420;2022-08-03T13:35:51;0.30;;;0.30;;
20699;SDS011;10511;51.232;9.420;2022-08-03T13:38:18;0.30;;;0.30;;
20699;SDS011;10511;51.232;9.420;2022-08-03T13:40:47;0.30;;;0.30;;
20699;SDS011;10511;51.232;9.420;2022-08-03T13:43:14;0.30;;;0.30;;
20699;SDS011;10511;51.232;9.420;2022-08-03T13:45:40;0.30;;;0.30;;
20699;SDS011;10511;51.232;9.420;2022-08-03T13:48:07;0.30;;;0.30;;
20699;SDS011;10511;51.232;9.420;2022-08-03T13:50:34;0.30;;;0.30;;
20699;SDS011;10511;51.232;9.420;2022-08-03T13:53:01;0.30;;;0.30;;
20699;SDS011;10511;51.232;9.420;2022-08-03T13:55:28;0.30;;;0.30;;
20699;SDS011;10511;51.232;9.420;2022-08-03T13:57:56;0.30;;;0.30;;
20699;SDS011;10511;51.232;9.420;2022-08-03T14:00:23;0.30;;;0.30;;
20699;SDS011;10511;51.232;9.420;2022-08-03T14:02:51;0.30;;;0.30;;
20699;SDS011;10511;51.232;9.420;2022-08-03T14:05:18;0.30;;;0.30;;
20699;SDS011;10511;51.232;9.420;2022-08-03T14:07:44;0.30;;;0.30;;
20699;SDS011;10511;51.232;9.420;2022-08-03T14:10:13;0.30;;;0.30;;
20699;SDS011;10511;51.232;9.420;2022-08-03T14:12:41;0.30;;;0.30;;
20699;SDS011;10511;51.232;9.420;2022-08-03T14:15:10;0.30;;;0.30;;
20699;SDS011;10511;51.232;9.420;2022-08-03T14:17:37;0.30;;;0.30;;
20699;SDS011;10511;51.232;9.420;2022-08-03T14:20:05;0.30;;;0.30;;
20699;SDS011;10511;51.232;9.420;2022-08-03T14:22:33;0.30;;;0.30;;
20699;SDS011;10511;51.232;9.420;2022-08-03T14:25:00;0.30;;;0.30;;
20699;SDS011;10511;51.232;9.420;2022-08-03T14:27:27;0.30;;;0.30;;
20699;SDS011;10511;51.232;9.420;2022-08-03T14:29:53;0.30;;;0.30;;
20699;SDS011;10511;51.232;9.420;2022-08-03T14:32:25;0.30;;;0.30;;
20699;SDS011;10511;51.232;9.420;2022-08-03T14:34:52;0.30;;;0.30;;
20699;SDS011;10511;51.232;9.420;2022-08-03T14:37:19;0.30;;;0.30;;
20699;SDS011;10511;51.232;9.420;2022-08-03T14:39:46;0.30;;;0.30;;
20699;SDS011;10511;51.232;9.420;2022-08-03T14:42:13;0.30;;;0.30;;
20699;SDS011;10511;51.232;9.420;2022-08-03T14:44:40;0.22;;;0.22;;
20699;SDS011;10511;51.232;9.420;2022-08-03T14:47:07;0.30;;;0.30;;
20699;SDS011;10511;51.232;9.420;2022-08-03T14:49:36;0.30;;;0.30;;
20699;SDS011;10511;51.232;9.420;2022-08-03T14:52:03;0.30;;;0.30;;
20699;SDS011;10511;51.232;9.420;2022-08-03T14:54:30;0.30;;;0.30;;
20699;SDS011;10511;51.232;9.420;2022-08-03T14:56:57;0.30;;;0.30;;
20699;SDS011;10511;51.232;9.420;2022-08-03T14:59:24;0.30;;;0.30;;
20699;SDS011;10511;51.232;9.420;2022-08-03T15:01:52;0.30;;;0.30;;
20699;SDS011;10511;51.232;9.420;2022-08-03T15:04:19;0.30;;;0.30;;
20699;SDS011;10511;51.232;9.420;2022-08-03T15:06:47;0.30;;;0.30;;
20699;SDS011;10511;51.232;9.420;2022-08-03T15:09:14;0.30;;;0.30;;
20699;SDS011;10511;51.232;9.420;2022-08-03T15:11:41;0.30;;;0.30;;
20699;SDS011;10511;51.232;9.420;2022-08-03T15:14:08;0.30;;;0.30;;
20699;SDS011;10511;51.232;9.420;2022-08-03T15:16:36;0.30;;;0.30;;